createdAt,value
2019-04-27T00:00:32.831Z,95.199997
2019-04-27T00:05:35.081Z,96.099998
2019-04-27T00:10:35.487Z,97.199997
2019-04-27T00:15:37.722Z,98.400002
2019-04-27T00:20:40.142Z,99.300003
2019-04-27T00:25:43.809Z,99.900002
2019-04-27T00:30:44.593Z,99.900002
2019-04-27T00:35:46.951Z,99.900002
2019-04-27T00:40:49.236Z,99.900002
2019-04-27T00:45:51.478Z,99.900002
2019-04-27T00:50:53.859Z,99.900002
2019-04-27T00:55:56.115Z,99.900002
2019-04-27T01:00:58.444Z,99.900002
2019-04-27T01:06:00.740Z,99.900002
2019-04-27T01:11:03.254Z,99.900002
2019-04-27T01:16:05.366Z,99.900002
2019-04-27T01:21:09.195Z,99.900002
2019-04-27T01:26:09.904Z,99.900002
2019-04-27T01:31:12.409Z,99.900002
2019-04-27T01:36:14.498Z,99.900002
2019-04-27T01:41:16.781Z,99.900002
2019-04-27T01:46:19.638Z,99.900002
2019-04-27T01:51:21.342Z,99.900002
2019-04-27T01:56:23.641Z,98
2019-04-27T02:01:25.953Z,97
2019-04-27T02:06:29.517Z,97
2019-04-27T02:11:30.581Z,96.900002
2019-04-27T02:16:32.869Z,97.800003
2019-04-27T02:21:35.076Z,98.5
2019-04-27T02:26:37.475Z,99.300003
2019-04-27T02:31:40.417Z,99.300003
2019-04-27T02:36:42.086Z,99.900002
2019-04-27T02:41:44.316Z,99.699997
2019-04-27T02:46:46.539Z,99.900002
2019-04-27T02:51:49.532Z,99.900002
2019-04-27T02:56:52.764Z,99.900002
2019-04-27T03:01:53.704Z,99.900002
2019-04-27T03:06:55.833Z,99.900002
2019-04-27T03:11:59.460Z,99.900002
2019-04-27T03:17:00.607Z,99.900002
2019-04-27T03:22:02.688Z,99.900002
2019-04-27T03:27:04.928Z,99.900002
2019-04-27T03:32:12.179Z,99.900002
2019-04-27T03:37:10.308Z,99.900002
2019-04-27T03:42:11.954Z,99.900002
2019-04-27T03:47:14.121Z,99.900002
2019-04-27T03:52:16.472Z,99.900002
2019-04-27T03:57:19.895Z,99.900002
2019-04-27T04:02:21.091Z,98.300003
2019-04-27T04:07:23.286Z,99.900002
2019-04-27T04:12:25.590Z,99.900002
2019-04-27T04:17:30.446Z,99.900002
2019-04-27T04:22:30.385Z,99.900002
2019-04-27T04:27:32.419Z,99.900002
2019-04-27T04:32:34.844Z,99.900002
2019-04-27T04:37:39.344Z,99.900002
2019-04-27T04:42:39.381Z,99.900002
2019-04-27T04:47:41.619Z,99.900002
2019-04-27T04:52:44.288Z,99.900002
2019-04-27T04:57:46.260Z,99.900002
2019-04-27T05:02:49.214Z,99.900002
2019-04-27T05:07:50.909Z,99.900002
2019-04-27T05:12:53.162Z,99.900002
2019-04-27T05:17:55.387Z,99.900002
2019-04-27T05:22:59.338Z,99.900002
2019-04-27T05:28:00.027Z,99.900002
2019-04-27T05:33:02.436Z,99.900002
2019-04-27T05:38:07.331Z,99.900002
2019-04-27T05:43:07.090Z,99.900002
2019-04-27T05:48:09.471Z,99.900002
2019-04-27T05:53:11.457Z,99.900002
2019-04-27T05:58:13.759Z,99.900002
2019-04-27T06:03:16.041Z,99.900002
2019-04-27T06:08:18.761Z,99.900002
2019-04-27T06:13:20.747Z,99.900002
2019-04-27T06:18:23.130Z,99.900002
2019-04-27T06:23:25.333Z,99.900002
2019-04-27T06:28:28.995Z,99.900002
2019-04-27T06:33:34.313Z,99.900002
2019-04-27T06:38:32.168Z,99.900002
2019-04-27T06:43:34.506Z,99.900002
2019-04-27T06:48:36.720Z,99.900002
2019-04-27T06:53:39.555Z,99.900002
2019-04-27T06:58:41.340Z,99.900002
2019-04-27T07:03:43.722Z,99.900002
2019-04-27T07:08:46.084Z,99.900002
2019-04-27T07:13:49.689Z,99.900002
2019-04-27T07:18:50.545Z,99.900002
2019-04-27T07:23:52.720Z,99.900002
2019-04-27T07:28:55.027Z,99.900002
2019-04-27T07:33:57.350Z,99.900002
2019-04-27T07:39:00.051Z,99.900002
2019-04-27T07:44:02.016Z,99.900002
2019-04-27T07:49:04.238Z,99.900002
2019-04-27T07:54:06.490Z,99.900002
2019-04-27T07:59:09.157Z,99.900002
2019-04-27T08:04:11.328Z,99.900002
2019-04-27T08:09:13.402Z,99.900002
2019-04-27T08:14:15.806Z,99.900002
2019-04-27T08:19:19.680Z,99.900002
2019-04-27T08:24:20.545Z,92.400002
2019-04-27T08:29:22.677Z,95.199997
2019-04-27T08:34:25.006Z,94.599998
2019-04-27T08:39:27.226Z,93.199997
2019-04-27T08:44:31.730Z,92.599998
2019-04-27T08:49:31.918Z,84.800003
2019-04-27T08:54:34.141Z,85.199997
2019-04-27T08:59:36.334Z,83.099998
2019-04-27T09:04:39.431Z,81.300003
2019-04-27T09:09:41.155Z,83.5
2019-04-27T09:14:43.265Z,83.800003
2019-04-27T09:19:45.484Z,83.900002
2019-04-27T09:24:49.418Z,84.699997
2019-04-27T09:29:50.183Z,82.699997
2019-04-27T09:34:52.434Z,61.599998
2019-04-27T09:39:56.116Z,63.5
2019-04-27T09:44:57.126Z,53.599998
2019-04-27T09:49:59.620Z,52.099998
2019-04-27T09:55:01.699Z,49
2019-04-27T10:00:04.107Z,48.799999
2019-04-27T10:05:06.232Z,47.599998
2019-04-27T10:10:08.540Z,44.700001
2019-04-27T10:15:10.717Z,45.799999
2019-04-27T10:20:13.056Z,44.700001
2019-04-27T10:30:17.778Z,44
2019-04-27T10:35:19.961Z,43.299999
2019-04-27T10:40:22.296Z,36.400002
2019-04-27T10:45:24.577Z,38.700001
2019-04-27T10:50:26.805Z,42.299999
2019-04-27T10:55:29.095Z,41.5
2019-04-27T11:00:31.432Z,46.099998
2019-04-27T11:05:33.801Z,41.299999
2019-04-27T11:10:36.150Z,39.900002
2019-04-27T11:15:38.491Z,40.200001
2019-04-27T11:20:40.553Z,39
2019-04-27T11:25:42.886Z,41.299999
2019-04-27T11:30:45.120Z,41.799999
2019-04-27T11:35:47.529Z,44.599998
2019-04-27T11:40:49.903Z,46
2019-04-27T11:45:52.167Z,41.799999
2019-04-27T11:50:56.071Z,43.900002
2019-04-27T11:55:56.672Z,54.599998
2019-04-27T12:00:58.958Z,52
2019-04-27T12:06:01.222Z,48.400002
2019-04-27T12:11:03.687Z,47.900002
2019-04-27T12:16:05.984Z,44.799999
2019-04-27T12:21:08.110Z,40.900002
2019-04-27T12:26:10.499Z,40.5
2019-04-27T12:31:12.737Z,45.299999
2019-04-27T12:36:15.756Z,57
2019-04-27T12:41:17.385Z,68.199997
2019-04-27T12:46:19.675Z,82
2019-04-27T12:51:22.077Z,99.900002
2019-04-27T12:56:24.357Z,99.900002
2019-04-27T13:01:26.479Z,99.900002
2019-04-27T13:06:28.979Z,99.900002
2019-04-27T13:11:31.100Z,99.900002
2019-04-27T13:16:33.397Z,99.900002
2019-04-27T13:21:36.569Z,98
2019-04-27T13:26:38.151Z,82.800003
2019-04-27T13:31:40.457Z,79.599998
2019-04-27T13:36:42.526Z,82.5
2019-04-27T13:41:46.310Z,62.599998
2019-04-27T13:46:47.153Z,62.900002
2019-04-27T13:51:49.425Z,64.800003
2019-04-27T13:56:51.721Z,61.299999
2019-04-27T14:01:54.035Z,64.199997
2019-04-27T14:06:56.234Z,46.700001
2019-04-27T14:11:58.542Z,52
2019-04-27T14:17:00.841Z,50.099998
2019-04-27T14:22:03.322Z,50.700001
2019-04-27T14:27:05.595Z,45.200001
2019-04-27T14:32:08.678Z,47.700001
2019-04-27T14:37:10.137Z,48
2019-04-27T14:42:12.365Z,51.799999
2019-04-27T14:47:14.691Z,42.299999
2019-04-27T14:52:18.689Z,40.200001
2019-04-27T14:57:20.489Z,42.099998
2019-04-27T15:02:21.609Z,43.700001
2019-04-27T15:07:25.126Z,45.5
2019-04-27T15:12:30.585Z,51.400002
2019-04-27T15:17:29.550Z,71.099998
2019-04-27T15:22:30.717Z,69.5
2019-04-27T15:27:37.428Z,68.599998
2019-04-27T15:32:39.473Z,68.5
2019-04-27T15:37:39.181Z,60.099998
2019-04-27T15:42:49.024Z,57
2019-04-27T15:47:42.540Z,57.700001
2019-04-27T15:52:44.384Z,57.599998
2019-04-27T15:57:48.322Z,56.200001
2019-04-27T16:02:52.447Z,55
2019-04-27T16:07:51.353Z,59.099998
2019-04-27T16:13:05.958Z,62.799999
2019-04-27T16:17:56.228Z,66.699997
2019-04-27T16:23:03.120Z,68.800003
2019-04-27T16:28:04.506Z,67.400002
2019-04-27T16:33:02.905Z,58.099998
2019-04-27T16:38:05.163Z,55.099998
2019-04-27T16:43:08.968Z,54
2019-04-27T16:48:09.691Z,51.799999
2019-04-27T16:53:12.601Z,51.299999
2019-04-27T16:58:15.877Z,51.599998
2019-04-27T17:03:18.087Z,52
2019-04-27T17:08:22.441Z,52.900002
2019-04-27T17:13:21.125Z,51.900002
2019-04-27T17:18:24.483Z,52.799999
2019-04-27T17:23:26.132Z,55.700001
2019-04-27T17:28:28.186Z,52.5
2019-04-27T17:33:30.281Z,52.5
2019-04-27T17:38:32.567Z,53
2019-04-27T17:43:37.397Z,51.200001
2019-04-27T17:48:38.048Z,51.5
2019-04-27T17:53:39.526Z,50.700001
2019-04-27T17:58:41.873Z,49.599998
2019-04-27T18:03:44.338Z,50.400002
2019-04-27T18:08:48.603Z,50.200001
2019-04-27T18:13:48.795Z,48.799999
2019-04-27T18:18:50.955Z,49.400002
2019-04-27T18:23:55.329Z,48.599998
2019-04-27T18:28:58.029Z,49.700001
2019-04-27T18:33:58.844Z,50.299999
2019-04-27T18:39:00.176Z,50.200001
2019-04-27T18:44:02.563Z,49.599998
2019-04-27T18:49:04.767Z,50.099998
2019-04-27T18:54:08.150Z,50.799999
2019-04-27T18:59:09.463Z,50.599998
2019-04-27T19:04:11.772Z,51.200001
2019-04-27T19:09:13.995Z,51.099998
2019-04-27T19:14:16.167Z,50.599998
2019-04-27T19:19:19.000Z,51.700001
2019-04-27T19:24:20.909Z,51
2019-04-27T19:29:23.051Z,51.599998
2019-04-27T19:34:25.583Z,51.200001
2019-04-27T19:39:28.569Z,51.200001
2019-04-27T19:44:30.019Z,52.200001
2019-04-27T19:49:32.302Z,53.299999
2019-04-27T19:54:34.578Z,52.5
2019-04-27T19:59:38.091Z,54
2019-04-27T20:04:39.103Z,53.599998
2019-04-27T20:09:41.412Z,54.5
2019-04-27T20:14:43.765Z,54.900002
2019-04-27T20:19:46.047Z,56.900002
2019-04-27T20:24:48.345Z,57.099998
2019-04-27T20:29:50.685Z,57
2019-04-27T20:34:53.079Z,57.5
2019-04-27T20:39:55.137Z,58.099998
2019-04-27T20:44:57.456Z,59.400002
2019-04-27T20:49:59.863Z,59.900002
2019-04-27T20:55:02.169Z,60.099998
2019-04-27T21:00:04.462Z,60.799999
2019-04-27T21:05:06.804Z,60.599998
2019-04-27T21:10:08.952Z,61.400002
2019-04-27T21:15:12.922Z,61.5
2019-04-27T21:20:13.746Z,61.5
2019-04-27T21:25:16.064Z,61.700001
2019-04-27T21:30:18.183Z,62.200001
2019-04-27T21:35:20.971Z,62.299999
2019-04-27T21:40:22.706Z,62.5
2019-04-27T21:45:25.026Z,62.400002
2019-04-27T21:50:27.443Z,62.900002
2019-04-27T21:55:30.911Z,62
2019-04-27T22:00:32.050Z,62.299999
2019-04-27T22:05:34.269Z,61.900002
2019-04-27T22:10:36.613Z,62.700001
2019-04-27T22:15:38.773Z,62.599998
2019-04-27T22:20:42.663Z,63.400002
2019-04-27T22:25:43.602Z,62.400002
2019-04-27T22:30:45.759Z,63.299999
2019-04-27T22:35:48.001Z,63.299999
2019-04-27T22:40:50.845Z,63.799999
2019-04-27T22:45:52.586Z,64.599998
2019-04-27T22:50:54.956Z,65.300003
2019-04-27T22:55:57.348Z,66.300003
2019-04-27T23:01:01.228Z,67.599998
2019-04-27T23:06:01.668Z,68.199997
2019-04-27T23:11:03.992Z,68.300003
2019-04-27T23:16:06.332Z,69
2019-04-27T23:21:08.692Z,70.099998
2019-04-27T23:26:11.971Z,70.699997
2019-04-27T23:31:13.246Z,71.400002
2019-04-27T23:36:15.743Z,71.599998
2019-04-27T23:41:17.798Z,72.800003
2019-04-27T23:46:21.484Z,73.599998
2019-04-27T23:51:22.300Z,74.099998
2019-04-27T23:56:24.840Z,74.800003
